sensor_id;sensor_type;location;lat;lon;timestamp;P1;durP1;ratioP1;P2;durP2;ratioP2
5867;SDS011;2960;49.142;7.768;2023-02-03T00:01:23;8.57;;;3.30;;
5867;SDS011;2960;49.142;7.768;2023-02-03T00:03:52;10.07;;;3.80;;
5867;SDS011;2960;49.142;7.768;2023-02-03T00:06:19;11.40;;;3.90;;
5867;SDS011;2960;49.142;7.768;2023-02-03T00:08:47;10.20;;;3.50;;
5867;SDS011;2960;49.142;7.768;2023-02-03T00:11:15;10.83;;;4.00;;
5867;SDS011;2960;49.142;7.768;2023-02-03T00:13:42;9.37;;;3.33;;
5867;SDS011;2960;49.142;7.768;2023-02-03T00:16:10;8.60;;;3.50;;
5867;SDS011;2960;49.142;7.768;2023-02-03T00:18:37;8.77;;;3.33;;
5867;SDS011;2960;49.142;7.768;2023-02-03T00:21:05;10.00;;;3.40;;
5867;SDS011;2960;49.142;7.768;2023-02-03T00:23:33;8.50;;;3.40;;
5867;SDS011;2960;49.142;7.768;2023-02-03T00:26:05;9.70;;;3.63;;
5867;SDS011;2960;49.142;7.768;2023-02-03T00:28:34;9.47;;;3.70;;
5867;SDS011;2960;49.142;7.768;2023-02-03T00:31:01;8.90;;;3.40;;
5867;SDS011;2960;49.142;7.768;2023-02-03T00:33:28;10.37;;;4.13;;
5867;SDS011;2960;49.142;7.768;2023-02-03T00:35:57;8.27;;;3.33;;
5867;SDS011;2960;49.142;7.768;2023-02-03T00:38:31;9.60;;;3.53;;
5867;SDS011;2960;49.142;7.768;2023-02-03T00:40:58;8.47;;;3.30;;
5867;SDS011;2960;49.142;7.768;2023-02-03T00:43:26;9.13;;;3.40;;
5867;SDS011;2960;49.142;7.768;2023-02-03T00:45:53;8.70;;;3.40;;
5867;SDS011;2960;49.142;7.768;2023-02-03T00:48:20;10.00;;;3.17;;
5867;SDS011;2960;49.142;7.768;2023-02-03T00:50:48;8.90;;;3.20;;
5867;SDS011;2960;49.142;7.768;2023-02-03T00:53:15;8.60;;;3.57;;
5867;SDS011;2960;49.142;7.768;2023-02-03T00:55:44;7.97;;;2.83;;
5867;SDS011;2960;49.142;7.768;2023-02-03T00:58:11;8.70;;;3.50;;
5867;SDS011;2960;49.142;7.768;2023-02-03T01:00:38;9.20;;;3.40;;
5867;SDS011;2960;49.142;7.768;2023-02-03T01:03:05;8.57;;;3.30;;
5867;SDS011;2960;49.142;7.768;2023-02-03T01:05:33;8.83;;;3.17;;
5867;SDS011;2960;49.142;7.768;2023-02-03T01:08:01;8.80;;;3.30;;
5867;SDS011;2960;49.142;7.768;2023-02-03T01:10:28;8.50;;;3.23;;
5867;SDS011;2960;49.142;7.768;2023-02-03T01:12:57;8.70;;;3.33;;
5867;SDS011;2960;49.142;7.768;2023-02-03T01:15:24;10.50;;;3.40;;
5867;SDS011;2960;49.142;7.768;2023-02-03T01:17:51;8.83;;;3.03;;
5867;SDS011;2960;49.142;7.768;2023-02-03T01:20:18;10.03;;;3.13;;
5867;SDS011;2960;49.142;7.768;2023-02-03T01:22:46;8.80;;;3.00;;
5867;SDS011;2960;49.142;7.768;2023-02-03T01:25:13;8.77;;;3.43;;
5867;SDS011;2960;49.142;7.768;2023-02-03T01:27:41;8.30;;;3.23;;
5867;SDS011;2960;49.142;7.768;2023-02-03T01:30:10;11.23;;;3.07;;
5867;SDS011;2960;49.142;7.768;2023-02-03T01:32:38;7.83;;;2.90;;
5867;SDS011;2960;49.142;7.768;2023-02-03T01:35:05;8.40;;;3.10;;
5867;SDS011;2960;49.142;7.768;2023-02-03T01:37:33;8.07;;;3.13;;
5867;SDS011;2960;49.142;7.768;2023-02-03T01:40:00;8.30;;;3.00;;
5867;SDS011;2960;49.142;7.768;2023-02-03T01:42:31;8.53;;;3.23;;
5867;SDS011;2960;49.142;7.768;2023-02-03T01:44:59;8.00;;;3.10;;
5867;SDS011;2960;49.142;7.768;2023-02-03T01:47:28;9.77;;;3.60;;
5867;SDS011;2960;49.142;7.768;2023-02-03T01:50:01;8.33;;;3.27;;
5867;SDS011;2960;49.142;7.768;2023-02-03T01:52:38;8.70;;;3.30;;
5867;SDS011;2960;49.142;7.768;2023-02-03T01:55:13;8.83;;;3.23;;
5867;SDS011;2960;49.142;7.768;2023-02-03T01:57:46;9.37;;;3.30;;
5867;SDS011;2960;49.142;7.768;2023-02-03T02:00:18;8.30;;;3.20;;
5867;SDS011;2960;49.142;7.768;2023-02-03T02:03:02;9.20;;;3.27;;
5867;SDS011;2960;49.142;7.768;2023-02-03T02:05:31;8.83;;;3.50;;
5867;SDS011;2960;49.142;7.768;2023-02-03T02:08:04;8.60;;;3.50;;
5867;SDS011;2960;49.142;7.768;2023-02-03T02:10:32;9.10;;;3.33;;
5867;SDS011;2960;49.142;7.768;2023-02-03T02:13:00;9.10;;;3.30;;
5867;SDS011;2960;49.142;7.768;2023-02-03T02:15:31;9.87;;;3.20;;
5867;SDS011;2960;49.142;7.768;2023-02-03T02:18:13;8.13;;;3.10;;
5867;SDS011;2960;49.142;7.768;2023-02-03T02:21:01;9.13;;;3.40;;
5867;SDS011;2960;49.142;7.768;2023-02-03T02:24:28;8.87;;;3.40;;
5867;SDS011;2960;49.142;7.768;2023-02-03T02:31:12;8.50;;;3.07;;
5867;SDS011;2960;49.142;7.768;2023-02-03T02:34:21;7.90;;;2.97;;
5867;SDS011;2960;49.142;7.768;2023-02-03T02:37:03;8.40;;;3.30;;
5867;SDS011;2960;49.142;7.768;2023-02-03T02:39:42;8.60;;;3.10;;
5867;SDS011;2960;49.142;7.768;2023-02-03T02:42:20;8.20;;;2.97;;
5867;SDS011;2960;49.142;7.768;2023-02-03T02:44:57;8.47;;;3.33;;
5867;SDS011;2960;49.142;7.768;2023-02-03T02:47:33;8.87;;;3.47;;
5867;SDS011;2960;49.142;7.768;2023-02-03T02:50:04;8.37;;;3.23;;
5867;SDS011;2960;49.142;7.768;2023-02-03T02:52:37;9.70;;;3.40;;
5867;SDS011;2960;49.142;7.768;2023-02-03T02:55:09;8.10;;;3.40;;
5867;SDS011;2960;49.142;7.768;2023-02-03T02:57:42;8.50;;;3.27;;
5867;SDS011;2960;49.142;7.768;2023-02-03T03:00:12;8.73;;;3.37;;
5867;SDS011;2960;49.142;7.768;2023-02-03T03:02:42;9.60;;;3.63;;
5867;SDS011;2960;49.142;7.768;2023-02-03T03:05:09;8.90;;;3.50;;
5867;SDS011;2960;49.142;7.768;2023-02-03T03:07:39;9.53;;;3.93;;
5867;SDS011;2960;49.142;7.768;2023-02-03T03:10:11;8.37;;;3.33;;
5867;SDS011;2960;49.142;7.768;2023-02-03T03:12:43;9.20;;;3.60;;
5867;SDS011;2960;49.142;7.768;2023-02-03T03:15:16;8.73;;;3.47;;
5867;SDS011;2960;49.142;7.768;2023-02-03T03:17:52;9.23;;;3.37;;
5867;SDS011;2960;49.142;7.768;2023-02-03T03:20:24;10.53;;;3.90;;
5867;SDS011;2960;49.142;7.768;2023-02-03T03:22:54;8.50;;;3.40;;
5867;SDS011;2960;49.142;7.768;2023-02-03T03:25:27;8.00;;;3.30;;
5867;SDS011;2960;49.142;7.768;2023-02-03T03:28:04;9.90;;;3.80;;
5867;SDS011;2960;49.142;7.768;2023-02-03T03:30:36;8.60;;;3.70;;
5867;SDS011;2960;49.142;7.768;2023-02-03T03:33:06;8.93;;;3.40;;
5867;SDS011;2960;49.142;7.768;2023-02-03T03:35:35;8.93;;;3.50;;
5867;SDS011;2960;49.142;7.768;2023-02-03T03:38:08;8.70;;;3.20;;
5867;SDS011;2960;49.142;7.768;2023-02-03T03:40:47;9.37;;;3.40;;
5867;SDS011;2960;49.142;7.768;2023-02-03T03:43:18;8.63;;;3.50;;
5867;SDS011;2960;49.142;7.768;2023-02-03T03:45:51;8.90;;;3.60;;
5867;SDS011;2960;49.142;7.768;2023-02-03T03:48:25;8.80;;;3.33;;
5867;SDS011;2960;49.142;7.768;2023-02-03T03:50:57;8.70;;;3.23;;
5867;SDS011;2960;49.142;7.768;2023-02-03T03:53:29;9.10;;;3.43;;
5867;SDS011;2960;49.142;7.768;2023-02-03T03:55:59;9.60;;;3.50;;
5867;SDS011;2960;49.142;7.768;2023-02-03T03:58:31;9.87;;;3.53;;
5867;SDS011;2960;49.142;7.768;2023-02-03T04:00:59;9.17;;;3.20;;
5867;SDS011;2960;49.142;7.768;2023-02-03T04:03:31;11.47;;;3.57;;
5867;SDS011;2960;49.142;7.768;2023-02-03T04:06:03;9.03;;;3.90;;
5867;SDS011;2960;49.142;7.768;2023-02-03T04:08:31;9.00;;;3.20;;
5867;SDS011;2960;49.142;7.768;2023-02-03T04:10:58;9.27;;;3.70;;
5867;SDS011;2960;49.142;7.768;2023-02-03T04:13:25;9.20;;;3.60;;
5867;SDS011;2960;49.142;7.768;2023-02-03T04:15:52;9.50;;;3.63;;
5867;SDS011;2960;49.142;7.768;2023-02-03T04:18:19;9.60;;;3.50;;
5867;SDS011;2960;49.142;7.768;2023-02-03T04:20:48;9.40;;;3.50;;
5867;SDS011;2960;49.142;7.768;2023-02-03T04:23:15;11.20;;;3.77;;
5867;SDS011;2960;49.142;7.768;2023-02-03T04:25:42;11.03;;;3.77;;
5867;SDS011;2960;49.142;7.768;2023-02-03T04:28:09;11.07;;;3.70;;
5867;SDS011;2960;49.142;7.768;2023-02-03T04:30:36;8.67;;;3.23;;
5867;SDS011;2960;49.142;7.768;2023-02-03T04:33:03;10.40;;;3.50;;
5867;SDS011;2960;49.142;7.768;2023-02-03T04:35:30;10.10;;;4.07;;
5867;SDS011;2960;49.142;7.768;2023-02-03T04:37:59;9.37;;;3.50;;
5867;SDS011;2960;49.142;7.768;2023-02-03T04:40:26;9.73;;;4.00;;
5867;SDS011;2960;49.142;7.768;2023-02-03T04:42:53;11.40;;;3.70;;
5867;SDS011;2960;49.142;7.768;2023-02-03T04:45:22;9.47;;;3.60;;
5867;SDS011;2960;49.142;7.768;2023-02-03T04:47:50;9.60;;;3.60;;
5867;SDS011;2960;49.142;7.768;2023-02-03T04:50:18;9.10;;;3.10;;
5867;SDS011;2960;49.142;7.768;2023-02-03T04:52:45;10.00;;;3.77;;
5867;SDS011;2960;49.142;7.768;2023-02-03T04:55:13;9.43;;;3.50;;
5867;SDS011;2960;49.142;7.768;2023-02-03T04:57:41;9.23;;;3.50;;
5867;SDS011;2960;49.142;7.768;2023-02-03T05:00:08;9.93;;;3.50;;
5867;SDS011;2960;49.142;7.768;2023-02-03T05:02:37;8.67;;;3.30;;
5867;SDS011;2960;49.142;7.768;2023-02-03T05:05:04;9.40;;;3.50;;
5867;SDS011;2960;49.142;7.768;2023-02-03T05:07:32;9.30;;;3.50;;
5867;SDS011;2960;49.142;7.768;2023-02-03T05:10:00;8.70;;;3.30;;
5867;SDS011;2960;49.142;7.768;2023-02-03T05:12:28;8.53;;;3.03;;
5867;SDS011;2960;49.142;7.768;2023-02-03T05:14:58;9.23;;;3.10;;
5867;SDS011;2960;49.142;7.768;2023-02-03T05:17:25;11.90;;;3.23;;
5867;SDS011;2960;49.142;7.768;2023-02-03T05:19:52;8.20;;;2.93;;
5867;SDS011;2960;49.142;7.768;2023-02-03T05:22:19;8.43;;;3.10;;
5867;SDS011;2960;49.142;7.768;2023-02-03T05:24:46;9.20;;;3.07;;
5867;SDS011;2960;49.142;7.768;2023-02-03T05:27:13;9.97;;;3.30;;
5867;SDS011;2960;49.142;7.768;2023-02-03T05:29:42;8.23;;;3.00;;
5867;SDS011;2960;49.142;7.768;2023-02-03T05:32:09;10.33;;;3.13;;
5867;SDS011;2960;49.142;7.768;2023-02-03T05:34:36;10.80;;;3.00;;
5867;SDS011;2960;49.142;7.768;2023-02-03T05:37:06;10.40;;;2.90;;
5867;SDS011;2960;49.142;7.768;2023-02-03T05:39:33;9.27;;;3.00;;
5867;SDS011;2960;49.142;7.768;2023-02-03T05:42:00;10.83;;;3.10;;
5867;SDS011;2960;49.142;7.768;2023-02-03T05:44:28;8.67;;;3.13;;
5867;SDS011;2960;49.142;7.768;2023-02-03T05:46:57;9.37;;;2.80;;
5867;SDS011;2960;49.142;7.768;2023-02-03T05:49:27;8.87;;;2.50;;
5867;SDS011;2960;49.142;7.768;2023-02-03T05:51:54;8.37;;;2.80;;
5867;SDS011;2960;49.142;7.768;2023-02-03T05:54:21;8.30;;;2.70;;
5867;SDS011;2960;49.142;7.768;2023-02-03T05:56:49;9.57;;;2.90;;
5867;SDS011;2960;49.142;7.768;2023-02-03T05:59:16;8.53;;;2.90;;
5867;SDS011;2960;49.142;7.768;2023-02-03T06:01:43;9.30;;;2.80;;
5867;SDS011;2960;49.142;7.768;2023-02-03T06:04:12;8.57;;;2.80;;
5867;SDS011;2960;49.142;7.768;2023-02-03T06:06:40;8.60;;;3.03;;
5867;SDS011;2960;49.142;7.768;2023-02-03T06:09:07;9.20;;;2.50;;
5867;SDS011;2960;49.142;7.768;2023-02-03T06:11:34;8.57;;;2.80;;
5867;SDS011;2960;49.142;7.768;2023-02-03T06:14:06;8.27;;;2.70;;
5867;SDS011;2960;49.142;7.768;2023-02-03T06:16:33;7.90;;;2.27;;
5867;SDS011;2960;49.142;7.768;2023-02-03T06:19:00;8.27;;;2.57;;
5867;SDS011;2960;49.142;7.768;2023-02-03T06:21:29;8.00;;;2.80;;
5867;SDS011;2960;49.142;7.768;2023-02-03T06:23:56;9.07;;;2.73;;
5867;SDS011;2960;49.142;7.768;2023-02-03T06:26:23;7.70;;;2.47;;
5867;SDS011;2960;49.142;7.768;2023-02-03T06:28:51;8.43;;;2.87;;
5867;SDS011;2960;49.142;7.768;2023-02-03T06:31:18;8.83;;;3.00;;
5867;SDS011;2960;49.142;7.768;2023-02-03T06:33:45;8.30;;;2.77;;
5867;SDS011;2960;49.142;7.768;2023-02-03T06:36:12;7.90;;;2.63;;
5867;SDS011;2960;49.142;7.768;2023-02-03T06:38:41;8.60;;;2.97;;
5867;SDS011;2960;49.142;7.768;2023-02-03T06:41:08;8.93;;;3.00;;
5867;SDS011;2960;49.142;7.768;2023-02-03T06:43:35;8.20;;;2.60;;
5867;SDS011;2960;49.142;7.768;2023-02-03T06:46:02;8.07;;;2.47;;
5867;SDS011;2960;49.142;7.768;2023-02-03T06:48:29;7.70;;;2.57;;
5867;SDS011;2960;49.142;7.768;2023-02-03T06:50:56;8.10;;;2.80;;
5867;SDS011;2960;49.142;7.768;2023-02-03T06:53:26;9.10;;;2.60;;
5867;SDS011;2960;49.142;7.768;2023-02-03T06:55:55;8.40;;;3.10;;
5867;SDS011;2960;49.142;7.768;2023-02-03T06:58:22;8.60;;;2.70;;
5867;SDS011;2960;49.142;7.768;2023-02-03T07:00:49;8.73;;;2.70;;
5867;SDS011;2960;49.142;7.768;2023-02-03T07:03:19;9.80;;;2.77;;
5867;SDS011;2960;49.142;7.768;2023-02-03T07:05:49;8.20;;;2.63;;
5867;SDS011;2960;49.142;7.768;2023-02-03T07:08:16;7.63;;;2.50;;
5867;SDS011;2960;49.142;7.768;2023-02-03T07:10:43;8.07;;;2.77;;
5867;SDS011;2960;49.142;7.768;2023-02-03T07:13:11;8.57;;;2.80;;
5867;SDS011;2960;49.142;7.768;2023-02-03T07:15:38;8.47;;;2.60;;
5867;SDS011;2960;49.142;7.768;2023-02-03T07:18:05;8.07;;;2.50;;
5867;SDS011;2960;49.142;7.768;2023-02-03T07:20:32;8.93;;;3.10;;
5867;SDS011;2960;49.142;7.768;2023-02-03T07:23:00;8.53;;;2.70;;
5867;SDS011;2960;49.142;7.768;2023-02-03T07:25:27;8.10;;;2.60;;
5867;SDS011;2960;49.142;7.768;2023-02-03T07:27:54;8.30;;;2.70;;
5867;SDS011;2960;49.142;7.768;2023-02-03T07:30:22;8.30;;;2.60;;
5867;SDS011;2960;49.142;7.768;2023-02-03T07:32:50;7.70;;;2.47;;
5867;SDS011;2960;49.142;7.768;2023-02-03T07:35:20;7.90;;;2.70;;
5867;SDS011;2960;49.142;7.768;2023-02-03T07:37:47;10.00;;;2.70;;
5867;SDS011;2960;49.142;7.768;2023-02-03T07:40:15;8.93;;;2.97;;
5867;SDS011;2960;49.142;7.768;2023-02-03T07:42:44;7.87;;;2.60;;
5867;SDS011;2960;49.142;7.768;2023-02-03T07:45:14;8.10;;;2.77;;
5867;SDS011;2960;49.142;7.768;2023-02-03T07:47:45;7.83;;;2.50;;
5867;SDS011;2960;49.142;7.768;2023-02-03T07:50:12;7.77;;;2.43;;
5867;SDS011;2960;49.142;7.768;2023-02-03T07:52:40;9.00;;;2.90;;
5867;SDS011;2960;49.142;7.768;2023-02-03T07:55:07;10.17;;;3.20;;
5867;SDS011;2960;49.142;7.768;2023-02-03T07:57:35;8.00;;;2.83;;
5867;SDS011;2960;49.142;7.768;2023-02-03T08:00:07;7.67;;;2.40;;
5867;SDS011;2960;49.142;7.768;2023-02-03T08:02:37;8.77;;;2.60;;
5867;SDS011;2960;49.142;7.768;2023-02-03T08:05:09;8.20;;;2.60;;
5867;SDS011;2960;49.142;7.768;2023-02-03T08:07:37;9.00;;;2.70;;
5867;SDS011;2960;49.142;7.768;2023-02-03T08:10:04;8.07;;;2.50;;
5867;SDS011;2960;49.142;7.768;2023-02-03T08:12:33;9.77;;;2.70;;
5867;SDS011;2960;49.142;7.768;2023-02-03T08:15:00;7.90;;;2.50;;
5867;SDS011;2960;49.142;7.768;2023-02-03T08:17:27;8.40;;;2.90;;
5867;SDS011;2960;49.142;7.768;2023-02-03T08:19:55;8.50;;;3.10;;
5867;SDS011;2960;49.142;7.768;2023-02-03T08:22:23;8.33;;;3.00;;
5867;SDS011;2960;49.142;7.768;2023-02-03T08:24:50;8.57;;;2.90;;
5867;SDS011;2960;49.142;7.768;2023-02-03T08:27:19;8.10;;;2.90;;
5867;SDS011;2960;49.142;7.768;2023-02-03T08:29:47;8.20;;;2.70;;
5867;SDS011;2960;49.142;7.768;2023-02-03T08:32:16;8.10;;;2.93;;
5867;SDS011;2960;49.142;7.768;2023-02-03T08:34:46;9.33;;;3.00;;
5867;SDS011;2960;49.142;7.768;2023-02-03T08:37:15;8.20;;;2.93;;
5867;SDS011;2960;49.142;7.768;2023-02-03T08:39:45;8.30;;;2.90;;
5867;SDS011;2960;49.142;7.768;2023-02-03T08:42:13;8.03;;;2.70;;
5867;SDS011;2960;49.142;7.768;2023-02-03T08:44:40;8.07;;;2.97;;
5867;SDS011;2960;49.142;7.768;2023-02-03T08:47:08;8.73;;;3.20;;
5867;SDS011;2960;49.142;7.768;2023-02-03T08:49:36;8.30;;;2.90;;
5867;SDS011;2960;49.142;7.768;2023-02-03T08:52:05;7.97;;;2.70;;
5867;SDS011;2960;49.142;7.768;2023-02-03T08:54:33;8.30;;;2.70;;
5867;SDS011;2960;49.142;7.768;2023-02-03T08:57:02;7.90;;;2.77;;
5867;SDS011;2960;49.142;7.768;2023-02-03T08:59:29;8.23;;;3.00;;
5867;SDS011;2960;49.142;7.768;2023-02-03T09:02:00;9.30;;;3.00;;
5867;SDS011;2960;49.142;7.768;2023-02-03T09:04:30;8.77;;;2.77;;
5867;SDS011;2960;49.142;7.768;2023-02-03T09:06:58;8.23;;;3.00;;
5867;SDS011;2960;49.142;7.768;2023-02-03T09:09:26;8.30;;;2.67;;
5867;SDS011;2960;49.142;7.768;2023-02-03T09:11:54;8.50;;;3.03;;
5867;SDS011;2960;49.142;7.768;2023-02-03T09:14:27;8.40;;;2.97;;
5867;SDS011;2960;49.142;7.768;2023-02-03T09:16:55;9.20;;;3.23;;
5867;SDS011;2960;49.142;7.768;2023-02-03T09:19:22;8.13;;;2.97;;
5867;SDS011;2960;49.142;7.768;2023-02-03T09:21:49;8.07;;;2.70;;
5867;SDS011;2960;49.142;7.768;2023-02-03T09:24:16;14.70;;;3.00;;
5867;SDS011;2960;49.142;7.768;2023-02-03T09:26:44;8.07;;;2.80;;
5867;SDS011;2960;49.142;7.768;2023-02-03T09:29:11;8.13;;;2.57;;
5867;SDS011;2960;49.142;7.768;2023-02-03T09:31:39;7.80;;;2.60;;
5867;SDS011;2960;49.142;7.768;2023-02-03T09:37:48;9.53;;;3.63;;
5867;SDS011;2960;49.142;7.768;2023-02-03T09:40:17;8.80;;;3.60;;
5867;SDS011;2960;49.142;7.768;2023-02-03T09:42:54;8.90;;;3.20;;
5867;SDS011;2960;49.142;7.768;2023-02-03T09:45:33;8.43;;;3.00;;
5867;SDS011;2960;49.142;7.768;2023-02-03T09:48:03;9.03;;;3.50;;
5867;SDS011;2960;49.142;7.768;2023-02-03T09:50:39;8.37;;;3.13;;
5867;SDS011;2960;49.142;7.768;2023-02-03T09:53:11;9.10;;;3.10;;
5867;SDS011;2960;49.142;7.768;2023-02-03T09:55:50;8.23;;;2.70;;
5867;SDS011;2960;49.142;7.768;2023-02-03T09:58:18;8.97;;;3.50;;
5867;SDS011;2960;49.142;7.768;2023-02-03T10:00:47;8.20;;;2.93;;
5867;SDS011;2960;49.142;7.768;2023-02-03T10:03:24;8.20;;;3.00;;
5867;SDS011;2960;49.142;7.768;2023-02-03T10:06:01;8.00;;;2.63;;
5867;SDS011;2960;49.142;7.768;2023-02-03T10:08:51;7.93;;;2.90;;
5867;SDS011;2960;49.142;7.768;2023-02-03T10:11:34;8.20;;;2.80;;
5867;SDS011;2960;49.142;7.768;2023-02-03T10:14:22;7.97;;;2.80;;
5867;SDS011;2960;49.142;7.768;2023-02-03T10:17:11;8.00;;;2.90;;
5867;SDS011;2960;49.142;7.768;2023-02-03T10:19:56;8.23;;;2.97;;
5867;SDS011;2960;49.142;7.768;2023-02-03T10:22:30;8.30;;;3.00;;
5867;SDS011;2960;49.142;7.768;2023-02-03T10:25:06;8.27;;;3.00;;
5867;SDS011;2960;49.142;7.768;2023-02-03T10:27:44;9.53;;;2.90;;
5867;SDS011;2960;49.142;7.768;2023-02-03T10:30:15;9.20;;;3.23;;
5867;SDS011;2960;49.142;7.768;2023-02-03T10:32:47;7.97;;;2.70;;
5867;SDS011;2960;49.142;7.768;2023-02-03T10:35:18;8.30;;;2.90;;
5867;SDS011;2960;49.142;7.768;2023-02-03T10:37:48;7.90;;;2.60;;
5867;SDS011;2960;49.142;7.768;2023-02-03T10:40:22;8.00;;;2.70;;
5867;SDS011;2960;49.142;7.768;2023-02-03T10:42:53;7.80;;;2.70;;
5867;SDS011;2960;49.142;7.768;2023-02-03T10:45:38;8.60;;;3.10;;
5867;SDS011;2960;49.142;7.768;2023-02-03T10:48:08;7.67;;;2.63;;
5867;SDS011;2960;49.142;7.768;2023-02-03T10:50:43;10.67;;;3.00;;
5867;SDS011;2960;49.142;7.768;2023-02-03T10:53:23;8.40;;;3.00;;
5867;SDS011;2960;49.142;7.768;2023-02-03T10:55:59;8.77;;;3.30;;
5867;SDS011;2960;49.142;7.768;2023-02-03T10:58:29;7.87;;;2.60;;
5867;SDS011;2960;49.142;7.768;2023-02-03T11:01:08;7.87;;;2.80;;
5867;SDS011;2960;49.142;7.768;2023-02-03T11:03:40;7.50;;;2.30;;
5867;SDS011;2960;49.142;7.768;2023-02-03T11:06:14;7.83;;;2.70;;
5867;SDS011;2960;49.142;7.768;2023-02-03T11:08:43;7.97;;;2.77;;
5867;SDS011;2960;49.142;7.768;2023-02-03T11:11:13;8.07;;;2.97;;
5867;SDS011;2960;49.142;7.768;2023-02-03T11:13:46;9.00;;;2.77;;
5867;SDS011;2960;49.142;7.768;2023-02-03T11:16:19;8.17;;;2.70;;
5867;SDS011;2960;49.142;7.768;2023-02-03T11:18:53;8.07;;;2.63;;
5867;SDS011;2960;49.142;7.768;2023-02-03T11:21:26;8.00;;;2.90;;
5867;SDS011;2960;49.142;7.768;2023-02-03T11:24:03;8.00;;;2.83;;
5867;SDS011;2960;49.142;7.768;2023-02-03T11:26:39;7.87;;;2.80;;
5867;SDS011;2960;49.142;7.768;2023-02-03T11:29:14;7.90;;;2.80;;
5867;SDS011;2960;49.142;7.768;2023-02-03T11:31:46;8.10;;;2.90;;
5867;SDS011;2960;49.142;7.768;2023-02-03T11:34:16;7.87;;;2.90;;
5867;SDS011;2960;49.142;7.768;2023-02-03T11:36:49;8.07;;;2.90;;
5867;SDS011;2960;49.142;7.768;2023-02-03T11:39:24;8.27;;;2.93;;
5867;SDS011;2960;49.142;7.768;2023-02-03T11:41:54;7.87;;;2.80;;
5867;SDS011;2960;49.142;7.768;2023-02-03T11:44:23;8.10;;;2.93;;
5867;SDS011;2960;49.142;7.768;2023-02-03T11:46:54;8.30;;;3.20;;
5867;SDS011;2960;49.142;7.768;2023-02-03T11:52:49;8.40;;;3.00;;
5867;SDS011;2960;49.142;7.768;2023-02-03T11:55:32;7.83;;;2.90;;
5867;SDS011;2960;49.142;7.768;2023-02-03T11:58:14;7.70;;;2.63;;
5867;SDS011;2960;49.142;7.768;2023-02-03T13:14:43;7.70;;;2.57;;
5867;SDS011;2960;49.142;7.768;2023-02-03T13:17:14;7.87;;;2.60;;
5867;SDS011;2960;49.142;7.768;2023-02-03T13:19:47;7.70;;;2.40;;
5867;SDS011;2960;49.142;7.768;2023-02-03T13:22:22;7.40;;;2.30;;
5867;SDS011;2960;49.142;7.768;2023-02-03T13:24:52;7.70;;;2.50;;
5867;SDS011;2960;49.142;7.768;2023-02-03T13:30:21;9.17;;;2.90;;
5867;SDS011;2960;49.142;7.768;2023-02-03T13:39:43;8.10;;;2.90;;
5867;SDS011;2960;49.142;7.768;2023-02-03T13:42:21;8.10;;;2.80;;
5867;SDS011;2960;49.142;7.768;2023-02-03T13:44:55;7.50;;;2.40;;
5867;SDS011;2960;49.142;7.768;2023-02-03T13:47:33;7.60;;;2.50;;
5867;SDS011;2960;49.142;7.768;2023-02-03T13:50:00;8.30;;;2.50;;
5867;SDS011;2960;49.142;7.768;2023-02-03T13:52:32;7.57;;;2.40;;
5867;SDS011;2960;49.142;7.768;2023-02-03T13:55:04;7.87;;;2.50;;
5867;SDS011;2960;49.142;7.768;2023-02-03T13:57:33;7.80;;;2.53;;
5867;SDS011;2960;49.142;7.768;2023-02-03T14:00:04;7.70;;;2.20;;
5867;SDS011;2960;49.142;7.768;2023-02-03T14:02:53;7.50;;;2.30;;
5867;SDS011;2960;49.142;7.768;2023-02-03T14:05:37;7.80;;;2.43;;
5867;SDS011;2960;49.142;7.768;2023-02-03T14:26:37;7.60;;;2.30;;
5867;SDS011;2960;49.142;7.768;2023-02-03T14:29:07;7.50;;;2.20;;
5867;SDS011;2960;49.142;7.768;2023-02-03T14:31:51;7.53;;;2.43;;
5867;SDS011;2960;49.142;7.768;2023-02-03T14:34:31;7.90;;;2.40;;
5867;SDS011;2960;49.142;7.768;2023-02-03T14:37:10;7.70;;;2.40;;
5867;SDS011;2960;49.142;7.768;2023-02-03T14:48:56;7.70;;;2.53;;
5867;SDS011;2960;49.142;7.768;2023-02-03T14:52:00;7.73;;;2.70;;
5867;SDS011;2960;49.142;7.768;2023-02-03T14:54:50;8.00;;;2.60;;
5867;SDS011;2960;49.142;7.768;2023-02-03T14:57:34;8.30;;;2.90;;
5867;SDS011;2960;49.142;7.768;2023-02-03T15:00:06;8.07;;;2.93;;
5867;SDS011;2960;49.142;7.768;2023-02-03T15:05:50;8.87;;;2.60;;
5867;SDS011;2960;49.142;7.768;2023-02-03T15:08:32;8.00;;;2.50;;
5867;SDS011;2960;49.142;7.768;2023-02-03T15:16:52;8.20;;;2.83;;
5867;SDS011;2960;49.142;7.768;2023-02-03T15:19:23;8.60;;;3.20;;
5867;SDS011;2960;49.142;7.768;2023-02-03T15:21:53;8.10;;;2.80;;
5867;SDS011;2960;49.142;7.768;2023-02-03T15:24:22;8.20;;;2.90;;
5867;SDS011;2960;49.142;7.768;2023-02-03T15:26:50;7.87;;;2.70;;
5867;SDS011;2960;49.142;7.768;2023-02-03T15:29:21;10.00;;;2.60;;
5867;SDS011;2960;49.142;7.768;2023-02-03T15:31:59;7.93;;;2.60;;
5867;SDS011;2960;49.142;7.768;2023-02-03T15:34:34;8.50;;;2.70;;
5867;SDS011;2960;49.142;7.768;2023-02-03T15:37:09;8.43;;;2.67;;
5867;SDS011;2960;49.142;7.768;2023-02-03T15:39:51;7.70;;;2.50;;
5867;SDS011;2960;49.142;7.768;2023-02-03T15:42:28;7.70;;;2.50;;
5867;SDS011;2960;49.142;7.768;2023-02-03T15:45:00;7.73;;;2.50;;
5867;SDS011;2960;49.142;7.768;2023-02-03T15:47:34;9.00;;;2.57;;
5867;SDS011;2960;49.142;7.768;2023-02-03T15:50:07;8.00;;;2.47;;
5867;SDS011;2960;49.142;7.768;2023-02-03T15:52:50;7.80;;;2.50;;
5867;SDS011;2960;49.142;7.768;2023-02-03T15:55:27;7.60;;;2.57;;
5867;SDS011;2960;49.142;7.768;2023-02-03T15:58:01;7.70;;;2.57;;
5867;SDS011;2960;49.142;7.768;2023-02-03T16:00:33;7.73;;;2.30;;
5867;SDS011;2960;49.142;7.768;2023-02-03T16:03:04;7.70;;;2.30;;
5867;SDS011;2960;49.142;7.768;2023-02-03T16:05:46;7.67;;;2.30;;
5867;SDS011;2960;49.142;7.768;2023-02-03T16:08:24;8.10;;;2.50;;
5867;SDS011;2960;49.142;7.768;2023-02-03T16:11:25;7.80;;;2.30;;
5867;SDS011;2960;49.142;7.768;2023-02-03T16:13:58;7.63;;;2.50;;
5867;SDS011;2960;49.142;7.768;2023-02-03T16:16:29;8.10;;;2.57;;
5867;SDS011;2960;49.142;7.768;2023-02-03T16:19:02;7.93;;;2.33;;
5867;SDS011;2960;49.142;7.768;2023-02-03T16:21:32;7.60;;;2.30;;
5867;SDS011;2960;49.142;7.768;2023-02-03T16:24:02;7.70;;;2.20;;
5867;SDS011;2960;49.142;7.768;2023-02-03T16:26:32;8.13;;;2.20;;
5867;SDS011;2960;49.142;7.768;2023-02-03T16:29:12;8.53;;;2.43;;
5867;SDS011;2960;49.142;7.768;2023-02-03T16:31:57;7.60;;;2.40;;
5867;SDS011;2960;49.142;7.768;2023-02-03T16:34:43;7.43;;;2.20;;
5867;SDS011;2960;49.142;7.768;2023-02-03T16:37:29;8.10;;;2.40;;
5867;SDS011;2960;49.142;7.768;2023-02-03T16:40:16;7.80;;;2.33;;
5867;SDS011;2960;49.142;7.768;2023-02-03T16:43:04;7.83;;;2.30;;
5867;SDS011;2960;49.142;7.768;2023-02-03T16:45:55;7.77;;;2.30;;
5867;SDS011;2960;49.142;7.768;2023-02-03T16:48:41;7.50;;;2.33;;
5867;SDS011;2960;49.142;7.768;2023-02-03T16:51:27;7.50;;;2.30;;
5867;SDS011;2960;49.142;7.768;2023-02-03T16:54:04;7.50;;;2.20;;
5867;SDS011;2960;49.142;7.768;2023-02-03T16:56:31;7.90;;;2.60;;
5867;SDS011;2960;49.142;7.768;2023-02-03T16:59:00;7.50;;;2.33;;
5867;SDS011;2960;49.142;7.768;2023-02-03T17:01:27;8.23;;;2.30;;
5867;SDS011;2960;49.142;7.768;2023-02-03T17:03:54;8.10;;;2.50;;
5867;SDS011;2960;49.142;7.768;2023-02-03T17:06:21;7.90;;;2.60;;
5867;SDS011;2960;49.142;7.768;2023-02-03T17:08:48;7.93;;;2.60;;
5867;SDS011;2960;49.142;7.768;2023-02-03T17:11:16;7.93;;;2.60;;
5867;SDS011;2960;49.142;7.768;2023-02-03T17:13:45;7.83;;;2.53;;
5867;SDS011;2960;49.142;7.768;2023-02-03T17:16:15;8.40;;;2.80;;
5867;SDS011;2960;49.142;7.768;2023-02-03T17:18:44;7.67;;;2.50;;
5867;SDS011;2960;49.142;7.768;2023-02-03T17:21:13;8.20;;;2.73;;
5867;SDS011;2960;49.142;7.768;2023-02-03T17:23:43;8.10;;;2.60;;
5867;SDS011;2960;49.142;7.768;2023-02-03T17:26:10;8.20;;;2.47;;
5867;SDS011;2960;49.142;7.768;2023-02-03T17:28:38;7.87;;;2.60;;
5867;SDS011;2960;49.142;7.768;2023-02-03T17:31:10;8.27;;;2.60;;
5867;SDS011;2960;49.142;7.768;2023-02-03T17:33:41;8.00;;;2.57;;
5867;SDS011;2960;49.142;7.768;2023-02-03T17:36:09;8.13;;;2.80;;
5867;SDS011;2960;49.142;7.768;2023-02-03T17:38:39;9.10;;;2.80;;
5867;SDS011;2960;49.142;7.768;2023-02-03T17:41:09;8.70;;;3.00;;
5867;SDS011;2960;49.142;7.768;2023-02-03T17:43:37;9.10;;;3.10;;
5867;SDS011;2960;49.142;7.768;2023-02-03T17:46:04;8.20;;;2.60;;
5867;SDS011;2960;49.142;7.768;2023-02-03T17:48:32;8.10;;;2.67;;
5867;SDS011;2960;49.142;7.768;2023-02-03T17:51:08;8.40;;;2.70;;
5867;SDS011;2960;49.142;7.768;2023-02-03T17:53:37;7.80;;;2.43;;